sensor_id;sensor_type;location;lat;lon;timestamp;temperature;humidity
22185;DHT22;11258;52.516;13.318;2022-08-03T00:01:26;23.30;99.90
22185;DHT22;11258;52.516;13.318;2022-08-03T00:03:52;23.40;99.90
22185;DHT22;11258;52.516;13.318;2022-08-03T00:06:18;23.40;99.90
22185;DHT22;11258;52.516;13.318;2022-08-03T00:08:43;23.40;99.90
22185;DHT22;11258;52.516;13.318;2022-08-03T00:11:09;23.50;99.90
22185;DHT22;11258;52.516;13.318;2022-08-03T00:13:34;23.50;99.90
22185;DHT22;11258;52.516;13.318;2022-08-03T00:16:00;23.40;99.90
22185;DHT22;11258;52.516;13.318;2022-08-03T00:18:26;23.40;99.90
22185;DHT22;11258;52.516;13.318;2022-08-03T00:20:51;23.40;99.90
22185;DHT22;11258;52.516;13.318;2022-08-03T00:23:17;23.40;99.90
22185;DHT22;11258;52.516;13.318;2022-08-03T00:25:42;23.30;99.90
22185;DHT22;11258;52.516;13.318;2022-08-03T00:28:08;23.30;99.90
22185;DHT22;11258;52.516;13.318;2022-08-03T00:30:34;23.30;99.90
22185;DHT22;11258;52.516;13.318;2022-08-03T00:33:01;23.20;99.90
22185;DHT22;11258;52.516;13.318;2022-08-03T00:35:27;23.20;99.90
22185;DHT22;11258;52.516;13.318;2022-08-03T00:37:53;23.20;99.90
22185;DHT22;11258;52.516;13.318;2022-08-03T00:40:19;23.20;99.90
22185;DHT22;11258;52.516;13.318;2022-08-03T00:45:19;23.20;99.90
22185;DHT22;11258;52.516;13.318;2022-08-03T00:47:44;23.20;99.90
22185;DHT22;11258;52.516;13.318;2022-08-03T00:50:10;23.20;99.90
22185;DHT22;11258;52.516;13.318;2022-08-03T00:52:36;23.10;99.90
22185;DHT22;11258;52.516;13.318;2022-08-03T00:55:03;23.20;99.90
22185;DHT22;11258;52.516;13.318;2022-08-03T00:57:32;23.10;99.90
22185;DHT22;11258;52.516;13.318;2022-08-03T00:59:58;23.00;99.90
22185;DHT22;11258;52.516;13.318;2022-08-03T01:02:27;22.90;99.90
22185;DHT22;11258;52.516;13.318;2022-08-03T01:04:54;22.90;99.90
22185;DHT22;11258;52.516;13.318;2022-08-03T01:10:06;23.00;99.90
22185;DHT22;11258;52.516;13.318;2022-08-03T01:15:38;23.00;99.90
22185;DHT22;11258;52.516;13.318;2022-08-03T01:18:11;22.90;99.90
22185;DHT22;11258;52.516;13.318;2022-08-03T01:20:43;22.90;99.90
22185;DHT22;11258;52.516;13.318;2022-08-03T01:26:27;22.80;99.90
22185;DHT22;11258;52.516;13.318;2022-08-03T01:32:00;22.80;99.90
22185;DHT22;11258;52.516;13.318;2022-08-03T01:34:31;22.80;99.90
22185;DHT22;11258;52.516;13.318;2022-08-03T01:37:00;22.80;99.90
22185;DHT22;11258;52.516;13.318;2022-08-03T01:39:28;22.80;99.90
22185;DHT22;11258;52.516;13.318;2022-08-03T01:41:58;22.80;99.90
22185;DHT22;11258;52.516;13.318;2022-08-03T01:44:29;22.80;99.90
22185;DHT22;11258;52.516;13.318;2022-08-03T01:47:00;22.70;99.90
22185;DHT22;11258;52.516;13.318;2022-08-03T01:49:28;22.80;99.90
22185;DHT22;11258;52.516;13.318;2022-08-03T01:51:55;22.80;99.90
22185;DHT22;11258;52.516;13.318;2022-08-03T01:54:23;22.80;99.90
22185;DHT22;11258;52.516;13.318;2022-08-03T01:56:50;22.70;99.90
22185;DHT22;11258;52.516;13.318;2022-08-03T01:59:18;22.70;99.90
22185;DHT22;11258;52.516;13.318;2022-08-03T02:01:45;22.70;99.90
22185;DHT22;11258;52.516;13.318;2022-08-03T02:04:14;22.70;99.90
22185;DHT22;11258;52.516;13.318;2022-08-03T02:06:42;22.70;99.90
22185;DHT22;11258;52.516;13.318;2022-08-03T02:09:09;22.70;99.90
22185;DHT22;11258;52.516;13.318;2022-08-03T02:11:36;22.70;99.90
22185;DHT22;11258;52.516;13.318;2022-08-03T02:14:04;22.60;99.90
22185;DHT22;11258;52.516;13.318;2022-08-03T02:16:31;22.70;99.90
22185;DHT22;11258;52.516;13.318;2022-08-03T02:19:00;22.70;99.90
22185;DHT22;11258;52.516;13.318;2022-08-03T02:21:28;22.70;99.90
22185;DHT22;11258;52.516;13.318;2022-08-03T02:23:54;22.70;99.90
22185;DHT22;11258;52.516;13.318;2022-08-03T02:26:21;22.70;99.90
22185;DHT22;11258;52.516;13.318;2022-08-03T02:28:51;22.70;99.90
22185;DHT22;11258;52.516;13.318;2022-08-03T02:31:21;22.80;99.90
22185;DHT22;11258;52.516;13.318;2022-08-03T02:33:50;22.80;99.90
22185;DHT22;11258;52.516;13.318;2022-08-03T02:36:22;22.80;99.90
22185;DHT22;11258;52.516;13.318;2022-08-03T02:38:52;22.90;99.90
22185;DHT22;11258;52.516;13.318;2022-08-03T02:41:23;22.80;99.90
22185;DHT22;11258;52.516;13.318;2022-08-03T02:43:53;22.70;99.90
22185;DHT22;11258;52.516;13.318;2022-08-03T02:46:20;22.70;99.90
22185;DHT22;11258;52.516;13.318;2022-08-03T02:48:47;22.70;99.90
22185;DHT22;11258;52.516;13.318;2022-08-03T02:51:16;22.60;99.90
22185;DHT22;11258;52.516;13.318;2022-08-03T02:53:44;22.60;99.90
22185;DHT22;11258;52.516;13.318;2022-08-03T02:56:10;22.60;99.90
22185;DHT22;11258;52.516;13.318;2022-08-03T02:58:38;22.60;99.90
22185;DHT22;11258;52.516;13.318;2022-08-03T03:01:05;22.60;99.90
22185;DHT22;11258;52.516;13.318;2022-08-03T03:03:31;22.50;99.90
22185;DHT22;11258;52.516;13.318;2022-08-03T03:05:57;22.60;99.90
22185;DHT22;11258;52.516;13.318;2022-08-03T03:08:24;22.50;99.90
22185;DHT22;11258;52.516;13.318;2022-08-03T03:10:51;22.60;99.90
22185;DHT22;11258;52.516;13.318;2022-08-03T03:13:18;22.50;99.90
22185;DHT22;11258;52.516;13.318;2022-08-03T03:15:45;22.50;99.90
22185;DHT22;11258;52.516;13.318;2022-08-03T03:18:11;22.60;99.90
22185;DHT22;11258;52.516;13.318;2022-08-03T03:20:38;22.50;99.90
22185;DHT22;11258;52.516;13.318;2022-08-03T03:23:06;22.50;99.90
22185;DHT22;11258;52.516;13.318;2022-08-03T03:25:33;22.60;99.90
22185;DHT22;11258;52.516;13.318;2022-08-03T03:28:00;22.60;99.90
22185;DHT22;11258;52.516;13.318;2022-08-03T03:30:27;22.50;99.90
22185;DHT22;11258;52.516;13.318;2022-08-03T03:32:53;22.50;99.90
22185;DHT22;11258;52.516;13.318;2022-08-03T03:35:19;22.40;99.90
22185;DHT22;11258;52.516;13.318;2022-08-03T03:37:45;22.40;99.90
22185;DHT22;11258;52.516;13.318;2022-08-03T03:40:10;22.50;99.90
22185;DHT22;11258;52.516;13.318;2022-08-03T03:42:36;22.40;99.90
22185;DHT22;11258;52.516;13.318;2022-08-03T03:45:06;22.40;99.90
22185;DHT22;11258;52.516;13.318;2022-08-03T03:47:36;22.40;99.90
22185;DHT22;11258;52.516;13.318;2022-08-03T03:50:03;22.40;99.90
22185;DHT22;11258;52.516;13.318;2022-08-03T03:52:30;22.40;99.90
22185;DHT22;11258;52.516;13.318;2022-08-03T03:54:56;22.40;99.90
22185;DHT22;11258;52.516;13.318;2022-08-03T03:57:22;22.50;99.90
22185;DHT22;11258;52.516;13.318;2022-08-03T03:59:47;22.50;99.90
22185;DHT22;11258;52.516;13.318;2022-08-03T04:02:14;22.70;99.90
22185;DHT22;11258;52.516;13.318;2022-08-03T04:04:40;22.80;99.90
22185;DHT22;11258;52.516;13.318;2022-08-03T04:07:25;24.10;99.90
22185;DHT22;11258;52.516;13.318;2022-08-03T04:10:14;25.50;99.90
22185;DHT22;11258;52.516;13.318;2022-08-03T04:13:01;25.90;99.90
22185;DHT22;11258;52.516;13.318;2022-08-03T04:15:30;26.60;99.90
22185;DHT22;11258;52.516;13.318;2022-08-03T04:17:58;27.50;99.80
22185;DHT22;11258;52.516;13.318;2022-08-03T04:20:27;28.60;97.90
22185;DHT22;11258;52.516;13.318;2022-08-03T04:22:55;29.40;96.10
22185;DHT22;11258;52.516;13.318;2022-08-03T04:25:26;29.70;95.30
22185;DHT22;11258;52.516;13.318;2022-08-03T04:27:52;30.00;94.10
22185;DHT22;11258;52.516;13.318;2022-08-03T04:30:21;30.30;93.10
22185;DHT22;11258;52.516;13.318;2022-08-03T04:32:48;30.60;92.50
22185;DHT22;11258;52.516;13.318;2022-08-03T04:35:17;29.80;92.30
22185;DHT22;11258;52.516;13.318;2022-08-03T04:37:48;28.20;93.40
22185;DHT22;11258;52.516;13.318;2022-08-03T04:40:30;27.10;94.60
22185;DHT22;11258;52.516;13.318;2022-08-03T04:42:58;26.40;96.00
22185;DHT22;11258;52.516;13.318;2022-08-03T04:45:26;27.20;96.40
22185;DHT22;11258;52.516;13.318;2022-08-03T04:47:52;28.90;94.80
22185;DHT22;11258;52.516;13.318;2022-08-03T04:50:19;30.60;92.80
22185;DHT22;11258;52.516;13.318;2022-08-03T04:52:45;32.10;90.60
22185;DHT22;11258;52.516;13.318;2022-08-03T04:55:10;32.50;88.00
22185;DHT22;11258;52.516;13.318;2022-08-03T04:57:36;32.40;86.00
22185;DHT22;11258;52.516;13.318;2022-08-03T05:00:03;32.80;85.70
22185;DHT22;11258;52.516;13.318;2022-08-03T05:02:30;32.80;84.00
22185;DHT22;11258;52.516;13.318;2022-08-03T05:04:56;32.60;83.50
22185;DHT22;11258;52.516;13.318;2022-08-03T05:07:22;33.60;82.70
22185;DHT22;11258;52.516;13.318;2022-08-03T05:09:47;34.10;81.20
22185;DHT22;11258;52.516;13.318;2022-08-03T05:12:13;33.60;80.20
22185;DHT22;11258;52.516;13.318;2022-08-03T05:14:39;34.80;79.00
22185;DHT22;11258;52.516;13.318;2022-08-03T05:17:05;34.30;78.10
22185;DHT22;11258;52.516;13.318;2022-08-03T05:19:31;34.00;77.20
22185;DHT22;11258;52.516;13.318;2022-08-03T05:21:57;34.00;76.50
22185;DHT22;11258;52.516;13.318;2022-08-03T05:24:22;34.40;76.30
22185;DHT22;11258;52.516;13.318;2022-08-03T05:26:48;35.00;75.50
22185;DHT22;11258;52.516;13.318;2022-08-03T05:29:14;35.60;74.70
22185;DHT22;11258;52.516;13.318;2022-08-03T05:31:39;35.80;73.30
22185;DHT22;11258;52.516;13.318;2022-08-03T05:34:05;36.50;72.70
22185;DHT22;11258;52.516;13.318;2022-08-03T05:36:31;36.90;71.60
22185;DHT22;11258;52.516;13.318;2022-08-03T05:38:56;36.50;70.40
22185;DHT22;11258;52.516;13.318;2022-08-03T05:41:22;36.50;70.50
22185;DHT22;11258;52.516;13.318;2022-08-03T05:43:48;36.40;70.10
22185;DHT22;11258;52.516;13.318;2022-08-03T05:46:14;36.40;69.40
22185;DHT22;11258;52.516;13.318;2022-08-03T05:48:40;36.20;69.90
22185;DHT22;11258;52.516;13.318;2022-08-03T05:53:34;36.40;69.60
22185;DHT22;11258;52.516;13.318;2022-08-03T05:56:00;35.40;70.00
22185;DHT22;11258;52.516;13.318;2022-08-03T05:58:26;36.00;70.90
22185;DHT22;11258;52.516;13.318;2022-08-03T06:00:52;36.50;69.80
22185;DHT22;11258;52.516;13.318;2022-08-03T06:03:17;36.20;69.10
22185;DHT22;11258;52.516;13.318;2022-08-03T06:05:44;36.20;69.20
22185;DHT22;11258;52.516;13.318;2022-08-03T06:08:09;36.80;67.70
22185;DHT22;11258;52.516;13.318;2022-08-03T06:10:35;36.70;67.30
22185;DHT22;11258;52.516;13.318;2022-08-03T06:13:01;36.80;67.60
22185;DHT22;11258;52.516;13.318;2022-08-03T06:15:26;37.60;67.10
22185;DHT22;11258;52.516;13.318;2022-08-03T06:17:52;38.00;65.60
22185;DHT22;11258;52.516;13.318;2022-08-03T06:20:18;38.00;64.00
22185;DHT22;11258;52.516;13.318;2022-08-03T06:22:45;37.90;63.90
22185;DHT22;11258;52.516;13.318;2022-08-03T06:25:11;37.90;64.90
22185;DHT22;11258;52.516;13.318;2022-08-03T06:27:37;38.40;63.80
22185;DHT22;11258;52.516;13.318;2022-08-03T06:30:06;39.00;62.40
22185;DHT22;11258;52.516;13.318;2022-08-03T06:32:33;39.30;62.10
22185;DHT22;11258;52.516;13.318;2022-08-03T06:34:59;39.30;61.40
22185;DHT22;11258;52.516;13.318;2022-08-03T06:37:25;39.90;61.10
22185;DHT22;11258;52.516;13.318;2022-08-03T06:39:51;40.20;60.20
22185;DHT22;11258;52.516;13.318;2022-08-03T06:42:17;40.10;59.80
22185;DHT22;11258;52.516;13.318;2022-08-03T06:44:42;40.20;59.60
22185;DHT22;11258;52.516;13.318;2022-08-03T06:47:08;40.70;58.80
22185;DHT22;11258;52.516;13.318;2022-08-03T06:49:34;40.10;58.80
22185;DHT22;11258;52.516;13.318;2022-08-03T06:51:59;40.00;58.10
22185;DHT22;11258;52.516;13.318;2022-08-03T06:54:25;39.50;58.30
22185;DHT22;11258;52.516;13.318;2022-08-03T06:56:51;39.40;58.20
22185;DHT22;11258;52.516;13.318;2022-08-03T06:59:17;39.70;58.20
22185;DHT22;11258;52.516;13.318;2022-08-03T07:01:42;40.10;58.10
22185;DHT22;11258;52.516;13.318;2022-08-03T07:04:08;38.90;58.50
22185;DHT22;11258;52.516;13.318;2022-08-03T07:06:33;39.30;58.60
22185;DHT22;11258;52.516;13.318;2022-08-03T07:08:59;38.10;59.00
22185;DHT22;11258;52.516;13.318;2022-08-03T07:11:25;37.90;59.50
22185;DHT22;11258;52.516;13.318;2022-08-03T07:13:50;38.00;60.10
22185;DHT22;11258;52.516;13.318;2022-08-03T07:16:16;38.30;59.50
22185;DHT22;11258;52.516;13.318;2022-08-03T07:18:41;38.30;59.40
22185;DHT22;11258;52.516;13.318;2022-08-03T07:21:07;38.50;59.90
22185;DHT22;11258;52.516;13.318;2022-08-03T07:23:35;38.10;59.50
22185;DHT22;11258;52.516;13.318;2022-08-03T07:26:00;38.30;59.50
22185;DHT22;11258;52.516;13.318;2022-08-03T07:28:26;38.50;59.50
22185;DHT22;11258;52.516;13.318;2022-08-03T07:30:52;38.90;58.80
22185;DHT22;11258;52.516;13.318;2022-08-03T07:33:18;39.50;59.30
22185;DHT22;11258;52.516;13.318;2022-08-03T07:35:43;39.90;58.60
22185;DHT22;11258;52.516;13.318;2022-08-03T07:38:09;40.80;58.20
22185;DHT22;11258;52.516;13.318;2022-08-03T07:40:34;41.10;57.20
22185;DHT22;11258;52.516;13.318;2022-08-03T07:43:00;41.60;57.30
22185;DHT22;11258;52.516;13.318;2022-08-03T07:45:29;42.00;57.00
22185;DHT22;11258;52.516;13.318;2022-08-03T07:47:54;41.90;55.50
22185;DHT22;11258;52.516;13.318;2022-08-03T07:50:20;41.30;56.40
22185;DHT22;11258;52.516;13.318;2022-08-03T07:52:46;40.60;56.10
22185;DHT22;11258;52.516;13.318;2022-08-03T07:55:20;41.20;56.00
22185;DHT22;11258;52.516;13.318;2022-08-03T07:57:47;41.50;55.40
22185;DHT22;11258;52.516;13.318;2022-08-03T08:00:18;41.50;56.30
22185;DHT22;11258;52.516;13.318;2022-08-03T08:02:44;41.80;55.80
22185;DHT22;11258;52.516;13.318;2022-08-03T08:05:11;41.90;55.80
22185;DHT22;11258;52.516;13.318;2022-08-03T08:07:37;42.20;55.20
22185;DHT22;11258;52.516;13.318;2022-08-03T08:10:05;42.10;54.80
22185;DHT22;11258;52.516;13.318;2022-08-03T08:12:31;41.10;54.60
22185;DHT22;11258;52.516;13.318;2022-08-03T08:14:56;40.80;55.00
22185;DHT22;11258;52.516;13.318;2022-08-03T08:17:22;39.90;55.90
22185;DHT22;11258;52.516;13.318;2022-08-03T08:19:47;39.70;55.70
22185;DHT22;11258;52.516;13.318;2022-08-03T08:22:13;39.60;56.30
22185;DHT22;11258;52.516;13.318;2022-08-03T08:24:38;38.90;56.20
22185;DHT22;11258;52.516;13.318;2022-08-03T08:27:04;37.90;56.80
22185;DHT22;11258;52.516;13.318;2022-08-03T08:29:30;37.50;57.90
22185;DHT22;11258;52.516;13.318;2022-08-03T08:31:55;37.90;57.90
22185;DHT22;11258;52.516;13.318;2022-08-03T08:34:21;37.10;57.50
22185;DHT22;11258;52.516;13.318;2022-08-03T08:36:47;37.90;58.10
22185;DHT22;11258;52.516;13.318;2022-08-03T08:39:12;39.20;57.10
22185;DHT22;11258;52.516;13.318;2022-08-03T08:41:38;39.90;56.30
22185;DHT22;11258;52.516;13.318;2022-08-03T08:44:04;38.50;56.10
22185;DHT22;11258;52.516;13.318;2022-08-03T08:46:32;38.10;57.00
22185;DHT22;11258;52.516;13.318;2022-08-03T08:48:59;38.90;56.40
22185;DHT22;11258;52.516;13.318;2022-08-03T08:51:30;38.90;56.30
22185;DHT22;11258;52.516;13.318;2022-08-03T08:54:00;39.60;56.70
22185;DHT22;11258;52.516;13.318;2022-08-03T08:56:27;40.20;55.30
22185;DHT22;11258;52.516;13.318;2022-08-03T08:59:00;39.70;55.10
22185;DHT22;11258;52.516;13.318;2022-08-03T09:01:26;39.30;54.90
22185;DHT22;11258;52.516;13.318;2022-08-03T09:03:53;38.50;55.80
22185;DHT22;11258;52.516;13.318;2022-08-03T09:06:20;38.10;55.80
22185;DHT22;11258;52.516;13.318;2022-08-03T09:08:46;38.30;56.20
22185;DHT22;11258;52.516;13.318;2022-08-03T09:11:11;39.00;56.80
22185;DHT22;11258;52.516;13.318;2022-08-03T09:13:37;39.60;56.40
22185;DHT22;11258;52.516;13.318;2022-08-03T09:16:19;39.80;55.20
22185;DHT22;11258;52.516;13.318;2022-08-03T09:18:49;39.10;55.70
22185;DHT22;11258;52.516;13.318;2022-08-03T09:21:17;39.40;56.70
22185;DHT22;11258;52.516;13.318;2022-08-03T09:23:47;38.40;56.20
22185;DHT22;11258;52.516;13.318;2022-08-03T09:26:19;37.30;57.80
22185;DHT22;11258;52.516;13.318;2022-08-03T09:28:45;36.30;58.60
22185;DHT22;11258;52.516;13.318;2022-08-03T09:31:11;36.20;59.20
22185;DHT22;11258;52.516;13.318;2022-08-03T09:33:46;37.00;59.00
22185;DHT22;11258;52.516;13.318;2022-08-03T09:36:45;36.60;58.80
22185;DHT22;11258;52.516;13.318;2022-08-03T09:39:15;36.00;60.70
22185;DHT22;11258;52.516;13.318;2022-08-03T09:41:43;35.80;60.50
22185;DHT22;11258;52.516;13.318;2022-08-03T09:44:09;35.90;61.00
22185;DHT22;11258;52.516;13.318;2022-08-03T09:46:51;36.50;60.50
22185;DHT22;11258;52.516;13.318;2022-08-03T09:49:17;35.60;60.30
22185;DHT22;11258;52.516;13.318;2022-08-03T09:51:43;34.60;61.80
22185;DHT22;11258;52.516;13.318;2022-08-03T09:54:09;34.70;63.00
22185;DHT22;11258;52.516;13.318;2022-08-03T09:56:43;35.00;62.20
22185;DHT22;11258;52.516;13.318;2022-08-03T09:59:21;35.90;62.20
22185;DHT22;11258;52.516;13.318;2022-08-03T10:01:48;36.20;61.60
22185;DHT22;11258;52.516;13.318;2022-08-03T10:04:14;36.40;61.10
22185;DHT22;11258;52.516;13.318;2022-08-03T10:06:45;36.30;60.30
22185;DHT22;11258;52.516;13.318;2022-08-03T10:09:25;36.30;61.00
22185;DHT22;11258;52.516;13.318;2022-08-03T10:11:51;36.10;61.40
22185;DHT22;11258;52.516;13.318;2022-08-03T10:14:16;36.00;61.60
22185;DHT22;11258;52.516;13.318;2022-08-03T10:16:47;36.40;61.60
22185;DHT22;11258;52.516;13.318;2022-08-03T10:19:13;36.30;62.80
22185;DHT22;11258;52.516;13.318;2022-08-03T10:21:41;35.50;60.60
22185;DHT22;11258;52.516;13.318;2022-08-03T10:24:11;35.30;62.30
22185;DHT22;11258;52.516;13.318;2022-08-03T10:26:38;35.80;62.80
22185;DHT22;11258;52.516;13.318;2022-08-03T10:29:11;35.60;61.60
22185;DHT22;11258;52.516;13.318;2022-08-03T10:31:42;35.00;62.70
22185;DHT22;11258;52.516;13.318;2022-08-03T10:34:20;35.50;62.80
22185;DHT22;11258;52.516;13.318;2022-08-03T10:36:48;34.30;63.70
22185;DHT22;11258;52.516;13.318;2022-08-03T10:39:18;35.00;64.30
22185;DHT22;11258;52.516;13.318;2022-08-03T10:41:46;35.50;64.00
22185;DHT22;11258;52.516;13.318;2022-08-03T10:44:16;35.30;63.00
22185;DHT22;11258;52.516;13.318;2022-08-03T10:46:43;35.10;62.70
22185;DHT22;11258;52.516;13.318;2022-08-03T10:49:14;34.50;63.60
22185;DHT22;11258;52.516;13.318;2022-08-03T10:51:41;34.20;64.20
22185;DHT22;11258;52.516;13.318;2022-08-03T10:57:02;34.60;64.50
22185;DHT22;11258;52.516;13.318;2022-08-03T11:02:14;35.30;63.00
22185;DHT22;11258;52.516;13.318;2022-08-03T11:04:40;34.10;63.70
22185;DHT22;11258;52.516;13.318;2022-08-03T11:07:22;33.70;64.90
22185;DHT22;11258;52.516;13.318;2022-08-03T11:09:55;33.60;65.30
22185;DHT22;11258;52.516;13.318;2022-08-03T11:12:27;33.90;66.00
22185;DHT22;11258;52.516;13.318;2022-08-03T11:14:55;34.50;66.00
22185;DHT22;11258;52.516;13.318;2022-08-03T11:17:21;34.90;65.00
22185;DHT22;11258;52.516;13.318;2022-08-03T11:19:49;35.00;63.90
22185;DHT22;11258;52.516;13.318;2022-08-03T11:22:15;34.80;64.30
22185;DHT22;11258;52.516;13.318;2022-08-03T11:30:05;35.40;65.40
22185;DHT22;11258;52.516;13.318;2022-08-03T11:35:08;34.70;64.50
22185;DHT22;11258;52.516;13.318;2022-08-03T11:37:35;34.90;64.40
22185;DHT22;11258;52.516;13.318;2022-08-03T11:40:01;34.80;63.80
22185;DHT22;11258;52.516;13.318;2022-08-03T11:44:57;34.10;65.10
22185;DHT22;11258;52.516;13.318;2022-08-03T11:47:24;34.00;65.70
22185;DHT22;11258;52.516;13.318;2022-08-03T11:49:54;33.90;65.80
22185;DHT22;11258;52.516;13.318;2022-08-03T11:52:22;33.80;66.10
22185;DHT22;11258;52.516;13.318;2022-08-03T11:54:52;33.50;66.40
22185;DHT22;11258;52.516;13.318;2022-08-03T11:57:30;33.40;66.90
22185;DHT22;11258;52.516;13.318;2022-08-03T11:59:56;33.30;66.70
22185;DHT22;11258;52.516;13.318;2022-08-03T12:02:22;33.40;67.60
22185;DHT22;11258;52.516;13.318;2022-08-03T12:04:58;33.40;67.60
22185;DHT22;11258;52.516;13.318;2022-08-03T12:07:28;33.20;67.10
22185;DHT22;11258;52.516;13.318;2022-08-03T12:10:13;33.40;67.10
22185;DHT22;11258;52.516;13.318;2022-08-03T12:12:40;33.70;67.60
22185;DHT22;11258;52.516;13.318;2022-08-03T12:15:07;33.80;66.80
22185;DHT22;11258;52.516;13.318;2022-08-03T12:17:33;33.50;67.00
22185;DHT22;11258;52.516;13.318;2022-08-03T12:19:59;33.60;67.30
22185;DHT22;11258;52.516;13.318;2022-08-03T12:22:36;33.90;67.70
22185;DHT22;11258;52.516;13.318;2022-08-03T12:25:07;33.70;66.40
22185;DHT22;11258;52.516;13.318;2022-08-03T12:27:33;33.30;67.10
22185;DHT22;11258;52.516;13.318;2022-08-03T12:30:00;33.20;67.60
22185;DHT22;11258;52.516;13.318;2022-08-03T12:32:27;33.30;68.00
22185;DHT22;11258;52.516;13.318;2022-08-03T12:34:55;33.00;67.70
22185;DHT22;11258;52.516;13.318;2022-08-03T12:37:25;32.90;68.60
22185;DHT22;11258;52.516;13.318;2022-08-03T12:39:52;33.20;68.80
22185;DHT22;11258;52.516;13.318;2022-08-03T12:42:18;33.20;68.40
22185;DHT22;11258;52.516;13.318;2022-08-03T12:44:44;33.20;68.40
22185;DHT22;11258;52.516;13.318;2022-08-03T12:47:11;33.20;68.60
22185;DHT22;11258;52.516;13.318;2022-08-03T12:49:53;33.30;68.90
22185;DHT22;11258;52.516;13.318;2022-08-03T12:52:20;33.50;68.00
22185;DHT22;11258;52.516;13.318;2022-08-03T12:54:56;33.40;68.00
22185;DHT22;11258;52.516;13.318;2022-08-03T12:57:22;33.70;68.00
22185;DHT22;11258;52.516;13.318;2022-08-03T12:59:48;33.90;69.10
22185;DHT22;11258;52.516;13.318;2022-08-03T13:02:24;33.70;67.10
22185;DHT22;11258;52.516;13.318;2022-08-03T13:04:53;33.60;67.40
22185;DHT22;11258;52.516;13.318;2022-08-03T13:07:20;33.50;67.60
22185;DHT22;11258;52.516;13.318;2022-08-03T13:09:51;33.50;68.00
22185;DHT22;11258;52.516;13.318;2022-08-03T13:12:22;33.50;68.20
22185;DHT22;11258;52.516;13.318;2022-08-03T13:14:53;33.40;67.70
22185;DHT22;11258;52.516;13.318;2022-08-03T13:17:19;33.30;68.30
22185;DHT22;11258;52.516;13.318;2022-08-03T13:19:46;33.40;68.60
22185;DHT22;11258;52.516;13.318;2022-08-03T13:22:20;33.50;68.60
22185;DHT22;11258;52.516;13.318;2022-08-03T13:24:48;33.20;68.30
22185;DHT22;11258;52.516;13.318;2022-08-03T13:27:14;33.00;69.10
22185;DHT22;11258;52.516;13.318;2022-08-03T13:29:40;33.10;69.40
22185;DHT22;11258;52.516;13.318;2022-08-03T13:32:07;32.80;69.40
22185;DHT22;11258;52.516;13.318;2022-08-03T13:34:33;32.80;69.70
22185;DHT22;11258;52.516;13.318;2022-08-03T13:36:59;32.70;69.80
22185;DHT22;11258;52.516;13.318;2022-08-03T13:39:24;32.80;69.80
22185;DHT22;11258;52.516;13.318;2022-08-03T13:41:50;33.00;69.70
22185;DHT22;11258;52.516;13.318;2022-08-03T13:44:16;33.20;70.10
22185;DHT22;11258;52.516;13.318;2022-08-03T13:46:43;33.30;69.40
22185;DHT22;11258;52.516;13.318;2022-08-03T13:49:09;33.40;69.70
22185;DHT22;11258;52.516;13.318;2022-08-03T13:51:34;33.50;69.60
22185;DHT22;11258;52.516;13.318;2022-08-03T13:54:00;33.50;69.50
22185;DHT22;11258;52.516;13.318;2022-08-03T13:56:26;33.30;70.40
22185;DHT22;11258;52.516;13.318;2022-08-03T13:58:51;33.00;69.60
22185;DHT22;11258;52.516;13.318;2022-08-03T14:01:17;33.00;70.00
22185;DHT22;11258;52.516;13.318;2022-08-03T14:03:43;33.00;70.10
22185;DHT22;11258;52.516;13.318;2022-08-03T14:06:09;33.10;70.20
22185;DHT22;11258;52.516;13.318;2022-08-03T14:08:35;33.10;70.30
22185;DHT22;11258;52.516;13.318;2022-08-03T14:11:01;33.00;70.30
22185;DHT22;11258;52.516;13.318;2022-08-03T14:13:26;32.80;70.40
22185;DHT22;11258;52.516;13.318;2022-08-03T14:15:52;32.80;71.10
22185;DHT22;11258;52.516;13.318;2022-08-03T14:18:20;32.80;70.90
22185;DHT22;11258;52.516;13.318;2022-08-03T14:20:46;33.00;71.40
22185;DHT22;11258;52.516;13.318;2022-08-03T14:23:12;32.80;71.80
22185;DHT22;11258;52.516;13.318;2022-08-03T14:25:38;33.00;71.20
22185;DHT22;11258;52.516;13.318;2022-08-03T14:28:06;33.00;70.90
22185;DHT22;11258;52.516;13.318;2022-08-03T14:30:31;33.00;70.90
22185;DHT22;11258;52.516;13.318;2022-08-03T14:32:57;33.00;71.00
22185;DHT22;11258;52.516;13.318;2022-08-03T14:35:22;32.90;71.00
22185;DHT22;11258;52.516;13.318;2022-08-03T14:37:48;32.90;71.20
22185;DHT22;11258;52.516;13.318;2022-08-03T14:40:13;32.90;71.10
22185;DHT22;11258;52.516;13.318;2022-08-03T14:42:39;33.00;70.90
22185;DHT22;11258;52.516;13.318;2022-08-03T14:45:05;33.00;70.90
22185;DHT22;11258;52.516;13.318;2022-08-03T14:47:30;32.90;70.80
22185;DHT22;11258;52.516;13.318;2022-08-03T14:49:57;32.80;71.00
22185;DHT22;11258;52.516;13.318;2022-08-03T14:52:23;32.90;71.10
22185;DHT22;11258;52.516;13.318;2022-08-03T14:54:48;33.00;71.30
22185;DHT22;11258;52.516;13.318;2022-08-03T14:57:14;33.20;71.30
22185;DHT22;11258;52.516;13.318;2022-08-03T14:59:39;33.30;71.00
22185;DHT22;11258;52.516;13.318;2022-08-03T15:02:05;33.30;70.90
22185;DHT22;11258;52.516;13.318;2022-08-03T15:04:31;33.50;70.80
22185;DHT22;11258;52.516;13.318;2022-08-03T15:06:56;33.40;70.40
22185;DHT22;11258;52.516;13.318;2022-08-03T15:09:22;33.40;71.00
22185;DHT22;11258;52.516;13.318;2022-08-03T15:11:47;33.30;70.80
22185;DHT22;11258;52.516;13.318;2022-08-03T15:14:13;33.30;71.00
22185;DHT22;11258;52.516;13.318;2022-08-03T15:16:38;33.30;70.90
22185;DHT22;11258;52.516;13.318;2022-08-03T15:19:04;33.30;71.20
22185;DHT22;11258;52.516;13.318;2022-08-03T15:21:30;33.40;71.30
22185;DHT22;11258;52.516;13.318;2022-08-03T15:23:56;33.40;71.10
22185;DHT22;11258;52.516;13.318;2022-08-03T15:26:21;33.30;71.70
22185;DHT22;11258;52.516;13.318;2022-08-03T15:28:47;33.40;72.00
22185;DHT22;11258;52.516;13.318;2022-08-03T15:31:12;33.30;72.00
22185;DHT22;11258;52.516;13.318;2022-08-03T15:33:38;33.40;72.00
22185;DHT22;11258;52.516;13.318;2022-08-03T15:36:04;33.40;71.80
22185;DHT22;11258;52.516;13.318;2022-08-03T15:38:30;33.40;71.70
22185;DHT22;11258;52.516;13.318;2022-08-03T15:40:55;33.40;71.90
22185;DHT22;11258;52.516;13.318;2022-08-03T15:43:22;33.30;71.30
22185;DHT22;11258;52.516;13.318;2022-08-03T15:45:47;33.30;71.70
22185;DHT22;11258;52.516;13.318;2022-08-03T15:48:13;33.30;72.00
22185;DHT22;11258;52.516;13.318;2022-08-03T15:50:39;33.30;72.30